sensor_id;sensor_type;location;lat;lon;timestamp;P1;durP1;ratioP1;P2;durP2;ratioP2
10479;SDS011;12789;42.610;23.040;2023-04-09T00:01:03;20.73;;;14.00;;
10479;SDS011;12789;42.610;23.040;2023-04-09T00:12:55;21.13;;;14.83;;
10479;SDS011;12789;42.610;23.040;2023-04-09T00:19:47;22.87;;;15.20;;
10479;SDS011;12789;42.610;23.040;2023-04-09T00:22:58;20.70;;;14.70;;
10479;SDS011;12789;42.610;23.040;2023-04-09T00:26:38;21.03;;;14.97;;
10479;SDS011;12789;42.610;23.040;2023-04-09T00:55:54;27.23;;;18.67;;
10479;SDS011;12789;42.610;23.040;2023-04-09T00:58:33;25.90;;;19.33;;
10479;SDS011;12789;42.610;23.040;2023-04-09T01:01:30;26.53;;;18.73;;
10479;SDS011;12789;42.610;23.040;2023-04-09T01:04:24;28.23;;;19.40;;
10479;SDS011;12789;42.610;23.040;2023-04-09T01:07:49;27.63;;;19.67;;
10479;SDS011;12789;42.610;23.040;2023-04-09T01:17:55;26.73;;;19.23;;
10479;SDS011;12789;42.610;23.040;2023-04-09T01:24:01;23.87;;;19.07;;
10479;SDS011;12789;42.610;23.040;2023-04-09T01:27:43;26.33;;;19.97;;
10479;SDS011;12789;42.610;23.040;2023-04-09T01:53:06;30.23;;;21.10;;
10479;SDS011;12789;42.610;23.040;2023-04-09T01:55:56;31.27;;;21.57;;
10479;SDS011;12789;42.610;23.040;2023-04-09T01:58:48;28.47;;;20.73;;
10479;SDS011;12789;42.610;23.040;2023-04-09T02:11:59;28.53;;;20.30;;
10479;SDS011;12789;42.610;23.040;2023-04-09T02:18:25;30.90;;;20.53;;
10479;SDS011;12789;42.610;23.040;2023-04-09T02:24:24;26.63;;;19.70;;
10479;SDS011;12789;42.610;23.040;2023-04-09T02:36:33;33.30;;;23.23;;
10479;SDS011;12789;42.610;23.040;2023-04-09T02:39:43;32.60;;;23.20;;
10479;SDS011;12789;42.610;23.040;2023-04-09T02:47:17;29.67;;;22.23;;
10479;SDS011;12789;42.610;23.040;2023-04-09T03:02:06;31.77;;;24.03;;
10479;SDS011;12789;42.610;23.040;2023-04-09T03:05:22;30.63;;;23.47;;
10479;SDS011;12789;42.610;23.040;2023-04-09T03:11:56;28.43;;;21.10;;
10479;SDS011;12789;42.610;23.040;2023-04-09T03:18:10;24.47;;;20.43;;
10479;SDS011;12789;42.610;23.040;2023-04-09T03:26:43;27.90;;;20.87;;
10479;SDS011;12789;42.610;23.040;2023-04-09T03:28:24;28.40;;;20.50;;
10479;SDS011;12789;42.610;23.040;2023-04-09T03:31:32;31.30;;;24.87;;
10479;SDS011;12789;42.610;23.040;2023-04-09T03:47:16;34.93;;;22.57;;
10479;SDS011;12789;42.610;23.040;2023-04-09T03:50:05;29.80;;;22.33;;
10479;SDS011;12789;42.610;23.040;2023-04-09T03:53:02;28.17;;;21.03;;
10479;SDS011;12789;42.610;23.040;2023-04-09T03:56:01;27.83;;;21.63;;
10479;SDS011;12789;42.610;23.040;2023-04-09T03:58:55;29.47;;;22.30;;
10479;SDS011;12789;42.610;23.040;2023-04-09T04:02:11;27.37;;;22.67;;
10479;SDS011;12789;42.610;23.040;2023-04-09T04:11:59;32.93;;;24.07;;
10479;SDS011;12789;42.610;23.040;2023-04-09T04:15:23;32.63;;;24.70;;
10479;SDS011;12789;42.610;23.040;2023-04-09T04:24:35;37.57;;;26.60;;
10479;SDS011;12789;42.610;23.040;2023-04-09T04:37:01;29.33;;;24.23;;
10479;SDS011;12789;42.610;23.040;2023-04-09T04:40:02;35.53;;;25.40;;
10479;SDS011;12789;42.610;23.040;2023-04-09T04:43:07;36.93;;;26.27;;
10479;SDS011;12789;42.610;23.040;2023-04-09T04:49:14;38.00;;;27.67;;
10479;SDS011;12789;42.610;23.040;2023-04-09T04:55:20;41.73;;;28.10;;
10479;SDS011;12789;42.610;23.040;2023-04-09T05:07:43;34.80;;;24.57;;
10479;SDS011;12789;42.610;23.040;2023-04-09T05:45:28;35.37;;;22.07;;
10479;SDS011;12789;42.610;23.040;2023-04-09T05:48:43;31.83;;;19.37;;
10479;SDS011;12789;42.610;23.040;2023-04-09T05:51:12;32.90;;;19.70;;
10479;SDS011;12789;42.610;23.040;2023-04-09T06:21:52;33.93;;;19.10;;
10479;SDS011;12789;42.610;23.040;2023-04-09T06:24:51;33.87;;;19.10;;
10479;SDS011;12789;42.610;23.040;2023-04-09T06:30:55;41.63;;;20.33;;
10479;SDS011;12789;42.610;23.040;2023-04-09T06:34:00;37.67;;;18.93;;
10479;SDS011;12789;42.610;23.040;2023-04-09T06:36:53;33.53;;;18.33;;
10479;SDS011;12789;42.610;23.040;2023-04-09T06:45:34;33.13;;;18.37;;
10479;SDS011;12789;42.610;23.040;2023-04-09T06:57:54;34.47;;;20.97;;
10479;SDS011;12789;42.610;23.040;2023-04-09T07:00:49;36.63;;;21.90;;
10479;SDS011;12789;42.610;23.040;2023-04-09T07:07:12;33.77;;;17.70;;
10479;SDS011;12789;42.610;23.040;2023-04-09T07:09:49;32.63;;;16.60;;
10479;SDS011;12789;42.610;23.040;2023-04-09T07:35:38;30.63;;;18.53;;
10479;SDS011;12789;42.610;23.040;2023-04-09T07:38:58;28.40;;;16.17;;
10479;SDS011;12789;42.610;23.040;2023-04-09T07:46:29;29.13;;;17.70;;
10479;SDS011;12789;42.610;23.040;2023-04-09T08:00:41;25.50;;;16.03;;
10479;SDS011;12789;42.610;23.040;2023-04-09T08:03:54;25.43;;;15.77;;
10479;SDS011;12789;42.610;23.040;2023-04-09T08:06:29;27.43;;;16.07;;
10479;SDS011;12789;42.610;23.040;2023-04-09T08:09:05;88.27;;;54.80;;
10479;SDS011;12789;42.610;23.040;2023-04-09T08:11:45;29.30;;;16.47;;
10479;SDS011;12789;42.610;23.040;2023-04-09T08:59:42;19.53;;;13.77;;
10479;SDS011;12789;42.610;23.040;2023-04-09T09:02:43;19.47;;;13.87;;
10479;SDS011;12789;42.610;23.040;2023-04-09T09:06:12;20.03;;;14.37;;
10479;SDS011;12789;42.610;23.040;2023-04-09T09:19:36;16.37;;;11.03;;
10479;SDS011;12789;42.610;23.040;2023-04-09T09:26:10;16.50;;;11.37;;
10479;SDS011;12789;42.610;23.040;2023-04-09T10:15:23;14.67;;;12.63;;
10479;SDS011;12789;42.610;23.040;2023-04-09T10:18:09;12.83;;;11.53;;
10479;SDS011;12789;42.610;23.040;2023-04-09T10:21:30;13.70;;;12.30;;
10479;SDS011;12789;42.610;23.040;2023-04-09T10:27:41;17.87;;;12.83;;
10479;SDS011;12789;42.610;23.040;2023-04-09T10:33:38;14.17;;;12.27;;
10479;SDS011;12789;42.610;23.040;2023-04-09T10:36:12;18.37;;;12.67;;
10479;SDS011;12789;42.610;23.040;2023-04-09T10:38:55;18.47;;;12.97;;
10479;SDS011;12789;42.610;23.040;2023-04-09T10:41:46;18.90;;;12.77;;
10479;SDS011;12789;42.610;23.040;2023-04-09T10:44:30;12.93;;;11.20;;
10479;SDS011;12789;42.610;23.040;2023-04-09T10:47:30;19.23;;;14.50;;
10479;SDS011;12789;42.610;23.040;2023-04-09T10:49:59;28.07;;;16.47;;
10479;SDS011;12789;42.610;23.040;2023-04-09T10:52:40;13.27;;;11.60;;
10479;SDS011;12789;42.610;23.040;2023-04-09T10:55:08;13.37;;;11.80;;
10479;SDS011;12789;42.610;23.040;2023-04-09T10:57:44;16.07;;;13.43;;
10479;SDS011;12789;42.610;23.040;2023-04-09T11:00:20;14.70;;;11.97;;
10479;SDS011;12789;42.610;23.040;2023-04-09T11:02:58;14.00;;;12.60;;
10479;SDS011;12789;42.610;23.040;2023-04-09T11:05:49;15.00;;;12.00;;
10479;SDS011;12789;42.610;23.040;2023-04-09T11:08:26;11.90;;;10.70;;
10479;SDS011;12789;42.610;23.040;2023-04-09T11:11:18;11.00;;;9.87;;
10479;SDS011;12789;42.610;23.040;2023-04-09T11:14:20;11.87;;;10.67;;
10479;SDS011;12789;42.610;23.040;2023-04-09T11:16:54;11.80;;;10.57;;
10479;SDS011;12789;42.610;23.040;2023-04-09T11:19:49;12.27;;;10.00;;
10479;SDS011;12789;42.610;23.040;2023-04-09T11:25:16;11.07;;;9.87;;
10479;SDS011;12789;42.610;23.040;2023-04-09T11:28:14;10.07;;;9.03;;
10479;SDS011;12789;42.610;23.040;2023-04-09T11:30:55;11.27;;;8.10;;
10479;SDS011;12789;42.610;23.040;2023-04-09T11:36:52;9.83;;;8.63;;
10479;SDS011;12789;42.610;23.040;2023-04-09T11:39:35;11.37;;;9.67;;
10479;SDS011;12789;42.610;23.040;2023-04-09T11:48:57;11.80;;;9.80;;
10479;SDS011;12789;42.610;23.040;2023-04-09T12:02:17;8.70;;;7.80;;
10479;SDS011;12789;42.610;23.040;2023-04-09T12:04:08;11.20;;;8.70;;
10479;SDS011;12789;42.610;23.040;2023-04-09T12:11:41;14.47;;;12.93;;
10479;SDS011;12789;42.610;23.040;2023-04-09T12:13:31;15.97;;;12.97;;
10479;SDS011;12789;42.610;23.040;2023-04-09T12:16:29;16.53;;;13.53;;
10479;SDS011;12789;42.610;23.040;2023-04-09T12:23:19;15.20;;;13.60;;
10479;SDS011;12789;42.610;23.040;2023-04-09T12:28:22;17.13;;;14.00;;
10479;SDS011;12789;42.610;23.040;2023-04-09T12:29:11;13.23;;;11.83;;
10479;SDS011;12789;42.610;23.040;2023-04-09T12:35:25;12.07;;;10.87;;
10479;SDS011;12789;42.610;23.040;2023-04-09T12:48:13;18.97;;;15.87;;
10479;SDS011;12789;42.610;23.040;2023-04-09T12:52:39;15.13;;;13.53;;
10479;SDS011;12789;42.610;23.040;2023-04-09T12:55:05;15.20;;;13.50;;
10479;SDS011;12789;42.610;23.040;2023-04-09T13:10:30;12.90;;;11.50;;
10479;SDS011;12789;42.610;23.040;2023-04-09T13:13:25;12.80;;;11.37;;
10479;SDS011;12789;42.610;23.040;2023-04-09T13:16:09;13.17;;;11.73;;
10479;SDS011;12789;42.610;23.040;2023-04-09T13:18:37;16.13;;;13.37;;
10479;SDS011;12789;42.610;23.040;2023-04-09T13:23:15;16.93;;;14.17;;
10479;SDS011;12789;42.610;23.040;2023-04-09T13:54:04;11.80;;;10.27;;
10479;SDS011;12789;42.610;23.040;2023-04-09T13:56:35;13.53;;;11.53;;
10479;SDS011;12789;42.610;23.040;2023-04-09T13:59:03;14.73;;;12.13;;
10479;SDS011;12789;42.610;23.040;2023-04-09T14:01:35;16.93;;;13.87;;
10479;SDS011;12789;42.610;23.040;2023-04-09T14:04:15;12.60;;;11.30;;
10479;SDS011;12789;42.610;23.040;2023-04-09T14:06:45;13.53;;;10.80;;
10479;SDS011;12789;42.610;23.040;2023-04-09T14:09:18;14.07;;;11.77;;
10479;SDS011;12789;42.610;23.040;2023-04-09T14:12:01;17.87;;;14.93;;
10479;SDS011;12789;42.610;23.040;2023-04-09T14:14:44;15.53;;;13.90;;
10479;SDS011;12789;42.610;23.040;2023-04-09T14:17:31;17.00;;;13.23;;
10479;SDS011;12789;42.610;23.040;2023-04-09T14:20:14;16.30;;;13.33;;
10479;SDS011;12789;42.610;23.040;2023-04-09T14:23:23;18.37;;;14.23;;
10479;SDS011;12789;42.610;23.040;2023-04-09T14:29:08;14.53;;;12.97;;
10479;SDS011;12789;42.610;23.040;2023-04-09T14:31:49;15.53;;;12.53;;
10479;SDS011;12789;42.610;23.040;2023-04-09T14:34:39;18.93;;;16.13;;
10479;SDS011;12789;42.610;23.040;2023-04-09T14:37:27;13.33;;;11.93;;
10479;SDS011;12789;42.610;23.040;2023-04-09T14:42:53;16.00;;;13.40;;
10479;SDS011;12789;42.610;23.040;2023-04-09T14:46:12;17.30;;;13.93;;
10479;SDS011;12789;42.610;23.040;2023-04-09T14:48:44;15.87;;;13.50;;
10479;SDS011;12789;42.610;23.040;2023-04-09T14:51:54;18.03;;;14.67;;
10479;SDS011;12789;42.610;23.040;2023-04-09T14:54:23;16.83;;;13.97;;
10479;SDS011;12789;42.610;23.040;2023-04-09T14:56:53;13.63;;;11.90;;
10479;SDS011;12789;42.610;23.040;2023-04-09T14:59:36;16.17;;;13.60;;
10479;SDS011;12789;42.610;23.040;2023-04-09T15:49:19;20.50;;;16.77;;
10479;SDS011;12789;42.610;23.040;2023-04-09T15:51:52;16.67;;;13.63;;
10479;SDS011;12789;42.610;23.040;2023-04-09T15:54:28;15.87;;;13.23;;
10479;SDS011;12789;42.610;23.040;2023-04-09T15:57:06;22.57;;;17.90;;
10479;SDS011;12789;42.610;23.040;2023-04-09T15:59:59;19.77;;;16.03;;
10479;SDS011;12789;42.610;23.040;2023-04-09T16:02:50;16.93;;;13.47;;
10479;SDS011;12789;42.610;23.040;2023-04-09T16:05:30;18.33;;;12.70;;
10479;SDS011;12789;42.610;23.040;2023-04-09T16:11:04;17.53;;;14.07;;
10479;SDS011;12789;42.610;23.040;2023-04-09T16:14:05;22.13;;;15.57;;
10479;SDS011;12789;42.610;23.040;2023-04-09T16:18:53;45.37;;;31.60;;
10479;SDS011;12789;42.610;23.040;2023-04-09T16:19:59;36.53;;;24.83;;
10479;SDS011;12789;42.610;23.040;2023-04-09T16:25:29;23.03;;;18.03;;
10479;SDS011;12789;42.610;23.040;2023-04-09T16:28:22;17.83;;;15.40;;
10479;SDS011;12789;42.610;23.040;2023-04-09T16:30:55;21.57;;;16.67;;
10479;SDS011;12789;42.610;23.040;2023-04-09T16:33:26;26.70;;;21.27;;
10479;SDS011;12789;42.610;23.040;2023-04-09T17:15:54;17.03;;;13.50;;
10479;SDS011;12789;42.610;23.040;2023-04-09T17:18:30;16.80;;;14.10;;
10479;SDS011;12789;42.610;23.040;2023-04-09T17:21:04;18.63;;;14.17;;
10479;SDS011;12789;42.610;23.040;2023-04-09T17:23:32;23.50;;;17.03;;
10479;SDS011;12789;42.610;23.040;2023-04-09T17:26:07;19.80;;;15.00;;
10479;SDS011;12789;42.610;23.040;2023-04-09T17:28:39;20.13;;;15.20;;
10479;SDS011;12789;42.610;23.040;2023-04-09T17:31:19;18.87;;;13.77;;
10479;SDS011;12789;42.610;23.040;2023-04-09T17:33:48;20.27;;;15.40;;
10479;SDS011;12789;42.610;23.040;2023-04-09T17:36:23;23.67;;;16.93;;
10479;SDS011;12789;42.610;23.040;2023-04-09T17:38:55;24.57;;;17.07;;
10479;SDS011;12789;42.610;23.040;2023-04-09T17:41:22;21.97;;;15.33;;
10479;SDS011;12789;42.610;23.040;2023-04-09T17:44:06;27.50;;;20.40;;
10479;SDS011;12789;42.610;23.040;2023-04-09T17:46:47;23.23;;;19.30;;
10479;SDS011;12789;42.610;23.040;2023-04-09T17:49:20;23.60;;;17.80;;
10479;SDS011;12789;42.610;23.040;2023-04-09T17:52:13;20.80;;;15.90;;
10479;SDS011;12789;42.610;23.040;2023-04-09T17:55:11;25.37;;;18.37;;
10479;SDS011;12789;42.610;23.040;2023-04-09T17:57:54;36.90;;;22.73;;
10479;SDS011;12789;42.610;23.040;2023-04-09T18:00:23;38.80;;;22.67;;
10479;SDS011;12789;42.610;23.040;2023-04-09T18:03:00;35.23;;;22.87;;
10479;SDS011;12789;42.610;23.040;2023-04-09T18:05:32;39.37;;;27.33;;
10479;SDS011;12789;42.610;23.040;2023-04-09T19:01:45;26.47;;;18.47;;
10479;SDS011;12789;42.610;23.040;2023-04-09T19:04:13;23.10;;;16.03;;
10479;SDS011;12789;42.610;23.040;2023-04-09T19:06:40;25.43;;;18.70;;
10479;SDS011;12789;42.610;23.040;2023-04-09T19:09:10;23.27;;;17.50;;
10479;SDS011;12789;42.610;23.040;2023-04-09T19:11:37;25.10;;;17.47;;
10479;SDS011;12789;42.610;23.040;2023-04-09T19:14:05;23.53;;;16.93;;
10479;SDS011;12789;42.610;23.040;2023-04-09T19:16:32;24.83;;;18.17;;
10479;SDS011;12789;42.610;23.040;2023-04-09T19:19:03;30.27;;;22.43;;
10479;SDS011;12789;42.610;23.040;2023-04-09T19:21:32;34.60;;;23.47;;
10479;SDS011;12789;42.610;23.040;2023-04-09T19:24:02;47.17;;;32.47;;
10479;SDS011;12789;42.610;23.040;2023-04-09T19:26:32;54.87;;;38.90;;
10479;SDS011;12789;42.610;23.040;2023-04-09T19:28:59;36.67;;;25.50;;
10479;SDS011;12789;42.610;23.040;2023-04-09T19:31:29;19.60;;;15.70;;
10479;SDS011;12789;42.610;23.040;2023-04-09T19:34:01;20.03;;;15.53;;
10479;SDS011;12789;42.610;23.040;2023-04-09T19:36:34;20.83;;;15.90;;
10479;SDS011;12789;42.610;23.040;2023-04-09T19:39:03;24.50;;;18.10;;
10479;SDS011;12789;42.610;23.040;2023-04-09T19:41:34;21.57;;;17.10;;
10479;SDS011;12789;42.610;23.040;2023-04-09T19:44:00;22.43;;;16.90;;
10479;SDS011;12789;42.610;23.040;2023-04-09T19:46:27;24.17;;;17.30;;
10479;SDS011;12789;42.610;23.040;2023-04-09T19:48:54;21.13;;;15.90;;
10479;SDS011;12789;42.610;23.040;2023-04-09T19:51:23;19.37;;;15.70;;
10479;SDS011;12789;42.610;23.040;2023-04-09T19:54:04;20.13;;;15.10;;
10479;SDS011;12789;42.610;23.040;2023-04-09T19:56:40;17.23;;;13.73;;
10479;SDS011;12789;42.610;23.040;2023-04-09T19:59:15;19.00;;;15.23;;
10479;SDS011;12789;42.610;23.040;2023-04-09T20:01:44;16.37;;;14.00;;
10479;SDS011;12789;42.610;23.040;2023-04-09T20:04:17;19.07;;;15.23;;
10479;SDS011;12789;42.610;23.040;2023-04-09T20:06:54;20.70;;;17.87;;
10479;SDS011;12789;42.610;23.040;2023-04-09T20:09:23;17.93;;;15.27;;
10479;SDS011;12789;42.610;23.040;2023-04-09T20:12:09;16.27;;;14.53;;
10479;SDS011;12789;42.610;23.040;2023-04-09T20:14:40;19.90;;;15.67;;
10479;SDS011;12789;42.610;23.040;2023-04-09T20:17:10;18.87;;;15.00;;
10479;SDS011;12789;42.610;23.040;2023-04-09T20:19:49;22.47;;;17.20;;
10479;SDS011;12789;42.610;23.040;2023-04-09T20:22:23;23.03;;;17.40;;
10479;SDS011;12789;42.610;23.040;2023-04-09T20:24:53;18.70;;;15.03;;
10479;SDS011;12789;42.610;23.040;2023-04-09T20:27:31;18.93;;;14.67;;
10479;SDS011;12789;42.610;23.040;2023-04-09T20:30:03;20.80;;;16.27;;
10479;SDS011;12789;42.610;23.040;2023-04-09T20:32:34;21.00;;;15.57;;
10479;SDS011;12789;42.610;23.040;2023-04-09T20:35:04;18.60;;;14.43;;
10479;SDS011;12789;42.610;23.040;2023-04-09T20:37:33;16.87;;;14.23;;
10479;SDS011;12789;42.610;23.040;2023-04-09T20:40:02;17.83;;;14.43;;
10479;SDS011;12789;42.610;23.040;2023-04-09T20:42:30;52.93;;;36.97;;
10479;SDS011;12789;42.610;23.040;2023-04-09T20:45:15;29.27;;;22.00;;
10479;SDS011;12789;42.610;23.040;2023-04-09T20:47:41;20.97;;;15.67;;
10479;SDS011;12789;42.610;23.040;2023-04-09T20:50:30;17.63;;;15.53;;
10479;SDS011;12789;42.610;23.040;2023-04-09T20:53:07;17.57;;;14.93;;
10479;SDS011;12789;42.610;23.040;2023-04-09T20:55:37;17.27;;;14.53;;
10479;SDS011;12789;42.610;23.040;2023-04-09T20:58:04;16.43;;;14.07;;
10479;SDS011;12789;42.610;23.040;2023-04-09T21:00:46;19.03;;;15.80;;
10479;SDS011;12789;42.610;23.040;2023-04-09T21:03:38;18.90;;;15.47;;
10479;SDS011;12789;42.610;23.040;2023-04-09T21:06:08;18.23;;;14.90;;
10479;SDS011;12789;42.610;23.040;2023-04-09T21:08:40;16.23;;;13.37;;
10479;SDS011;12789;42.610;23.040;2023-04-09T21:11:10;20.07;;;16.37;;
10479;SDS011;12789;42.610;23.040;2023-04-09T21:13:37;18.20;;;15.40;;
10479;SDS011;12789;42.610;23.040;2023-04-09T21:16:08;15.23;;;13.63;;
10479;SDS011;12789;42.610;23.040;2023-04-09T21:18:45;20.60;;;16.33;;
10479;SDS011;12789;42.610;23.040;2023-04-09T21:21:21;17.63;;;14.03;;
10479;SDS011;12789;42.610;23.040;2023-04-09T21:23:55;16.27;;;14.30;;
10479;SDS011;12789;42.610;23.040;2023-04-09T21:26:24;21.37;;;14.93;;
10479;SDS011;12789;42.610;23.040;2023-04-09T21:29:00;18.40;;;14.50;;
10479;SDS011;12789;42.610;23.040;2023-04-09T21:31:28;20.30;;;14.57;;
10479;SDS011;12789;42.610;23.040;2023-04-09T21:34:03;18.90;;;15.00;;
10479;SDS011;12789;42.610;23.040;2023-04-09T21:36:40;20.23;;;13.97;;
10479;SDS011;12789;42.610;23.040;2023-04-09T21:39:33;16.60;;;14.30;;
10479;SDS011;12789;42.610;23.040;2023-04-09T21:42:02;17.40;;;14.23;;
10479;SDS011;12789;42.610;23.040;2023-04-09T21:44:35;20.43;;;16.00;;
10479;SDS011;12789;42.610;23.040;2023-04-09T21:47:11;20.87;;;16.27;;
10479;SDS011;12789;42.610;23.040;2023-04-09T21:49:39;27.73;;;19.07;;
10479;SDS011;12789;42.610;23.040;2023-04-09T21:52:08;35.60;;;23.43;;
10479;SDS011;12789;42.610;23.040;2023-04-09T21:54:40;17.47;;;14.17;;
10479;SDS011;12789;42.610;23.040;2023-04-09T21:57:10;25.53;;;18.53;;
10479;SDS011;12789;42.610;23.040;2023-04-09T21:59:40;48.77;;;31.00;;
10479;SDS011;12789;42.610;23.040;2023-04-09T22:02:11;28.27;;;21.17;;
10479;SDS011;12789;42.610;23.040;2023-04-09T22:04:39;32.50;;;23.50;;
10479;SDS011;12789;42.610;23.040;2023-04-09T22:07:07;21.80;;;15.60;;
10479;SDS011;12789;42.610;23.040;2023-04-09T22:09:55;19.97;;;15.93;;
10479;SDS011;12789;42.610;23.040;2023-04-09T22:12:23;20.87;;;15.73;;
10479;SDS011;12789;42.610;23.040;2023-04-09T22:15:02;28.67;;;21.40;;
10479;SDS011;12789;42.610;23.040;2023-04-09T22:17:34;71.43;;;47.87;;
10479;SDS011;12789;42.610;23.040;2023-04-09T22:20:07;50.53;;;35.17;;
10479;SDS011;12789;42.610;23.040;2023-04-09T22:22:34;22.50;;;16.73;;
10479;SDS011;12789;42.610;23.040;2023-04-09T22:25:04;22.17;;;18.57;;
10479;SDS011;12789;42.610;23.040;2023-04-09T22:27:34;50.63;;;33.53;;
10479;SDS011;12789;42.610;23.040;2023-04-09T22:30:02;132.93;;;85.33;;
10479;SDS011;12789;42.610;23.040;2023-04-09T22:32:38;98.20;;;62.87;;
10479;SDS011;12789;42.610;23.040;2023-04-09T22:35:05;44.93;;;30.63;;
10479;SDS011;12789;42.610;23.040;2023-04-09T22:37:32;30.03;;;23.10;;
10479;SDS011;12789;42.610;23.040;2023-04-09T22:39:59;22.67;;;17.57;;
10479;SDS011;12789;42.610;23.040;2023-04-09T22:42:35;18.90;;;15.73;;
10479;SDS011;12789;42.610;23.040;2023-04-09T22:45:09;19.90;;;15.37;;
10479;SDS011;12789;42.610;23.040;2023-04-09T22:47:37;17.87;;;15.40;;
10479;SDS011;12789;42.610;23.040;2023-04-09T22:50:05;18.63;;;14.80;;
10479;SDS011;12789;42.610;23.040;2023-04-09T22:52:32;20.47;;;15.97;;
10479;SDS011;12789;42.610;23.040;2023-04-09T22:54:58;21.33;;;15.77;;
10479;SDS011;12789;42.610;23.040;2023-04-09T22:57:42;21.90;;;16.10;;
10479;SDS011;12789;42.610;23.040;2023-04-09T23:00:28;19.77;;;15.87;;
10479;SDS011;12789;42.610;23.040;2023-04-09T23:02:56;19.60;;;14.97;;
10479;SDS011;12789;42.610;23.040;2023-04-09T23:05:23;17.83;;;14.50;;
10479;SDS011;12789;42.610;23.040;2023-04-09T23:07:51;17.63;;;14.57;;
10479;SDS011;12789;42.610;23.040;2023-04-09T23:10:21;18.30;;;14.67;;
10479;SDS011;12789;42.610;23.040;2023-04-09T23:12:51;19.57;;;14.93;;
10479;SDS011;12789;42.610;23.040;2023-04-09T23:15:20;19.03;;;14.40;;
10479;SDS011;12789;42.610;23.040;2023-04-09T23:17:53;16.60;;;14.43;;
10479;SDS011;12789;42.610;23.040;2023-04-09T23:20:20;18.30;;;14.73;;
10479;SDS011;12789;42.610;23.040;2023-04-09T23:22:46;17.90;;;14.67;;
10479;SDS011;12789;42.610;23.040;2023-04-09T23:25:15;20.23;;;15.17;;
10479;SDS011;12789;42.610;23.040;2023-04-09T23:27:42;20.30;;;15.47;;
10479;SDS011;12789;42.610;23.040;2023-04-09T23:30:12;23.43;;;17.40;;
10479;SDS011;12789;42.610;23.040;2023-04-09T23:32:43;20.63;;;16.20;;
10479;SDS011;12789;42.610;23.040;2023-04-09T23:35:12;26.93;;;21.13;;
10479;SDS011;12789;42.610;23.040;2023-04-09T23:37:42;20.27;;;16.73;;
10479;SDS011;12789;42.610;23.040;2023-04-09T23:40:12;21.33;;;16.33;;
10479;SDS011;12789;42.610;23.040;2023-04-09T23:42:41;21.13;;;16.53;;
10479;SDS011;12789;42.610;23.040;2023-04-09T23:45:13;19.07;;;16.13;;
10479;SDS011;12789;42.610;23.040;2023-04-09T23:47:42;21.97;;;17.37;;
10479;SDS011;12789;42.610;23.040;2023-04-09T23:50:12;21.63;;;16.83;;
10479;SDS011;12789;42.610;23.040;2023-04-09T23:52:44;21.77;;;16.37;;
10479;SDS011;12789;42.610;23.040;2023-04-09T23:55:27;20.23;;;15.80;;
10479;SDS011;12789;42.610;23.040;2023-04-09T23:57:59;23.83;;;16.87;;
